createdAt,value
2017-04-29T00:00:39.515Z,6.10
2017-04-29T00:03:09.507Z,6.70
2017-04-29T00:05:38.575Z,6.45
2017-04-29T00:08:08.406Z,5.48
2017-04-29T00:10:37.827Z,5.37
2017-04-29T00:13:06.906Z,5.72
2017-04-29T00:15:36.220Z,6.90
2017-04-29T00:18:06.325Z,6.72
2017-04-29T00:20:39.163Z,8.33
2017-04-29T00:23:09.712Z,6.78
2017-04-29T00:25:39.858Z,7.33
2017-04-29T00:28:09.141Z,5.87
2017-04-29T00:30:38.288Z,7.40
2017-04-29T00:33:07.942Z,6.65
2017-04-29T00:35:37.830Z,6.72
2017-04-29T00:38:06.977Z,6.92
2017-04-29T00:40:36.431Z,6.60
2017-04-29T00:43:05.691Z,6.37
2017-04-29T00:45:34.943Z,7.05
2017-04-29T00:48:04.304Z,7.15
2017-04-29T00:50:33.801Z,6.47
2017-04-29T00:53:02.924Z,7.67
2017-04-29T00:55:32.191Z,6.90
2017-04-29T00:58:01.427Z,6.87
2017-04-29T01:00:30.542Z,6.98
2017-04-29T01:03:03.785Z,7.78
2017-04-29T01:05:33.124Z,7.65
2017-04-29T01:08:02.247Z,7.47
2017-04-29T01:10:32.250Z,7.15
2017-04-29T01:13:01.672Z,7.70
2017-04-29T01:15:31.531Z,7.57
2017-04-29T01:18:00.903Z,7.07
2017-04-29T01:20:30.143Z,6.92
2017-04-29T01:22:59.344Z,7.48
2017-04-29T01:25:28.643Z,8.20
2017-04-29T01:27:58.265Z,7.98
2017-04-29T01:30:27.721Z,7.55
2017-04-29T01:32:57.252Z,8.08
2017-04-29T01:35:27.167Z,7.95
2017-04-29T01:37:56.476Z,8.42
2017-04-29T01:40:26.419Z,8.72
2017-04-29T01:42:55.791Z,8.58
2017-04-29T01:45:25.214Z,8.50
2017-04-29T01:47:55.679Z,9.18
2017-04-29T01:50:25.216Z,8.95
2017-04-29T01:52:54.600Z,9.05
2017-04-29T01:55:24.383Z,8.57
2017-04-29T01:57:53.848Z,10.25
2017-04-29T02:00:23.202Z,9.63
2017-04-29T02:02:52.685Z,9.83
2017-04-29T02:05:21.923Z,10.45
2017-04-29T02:07:51.240Z,8.38
2017-04-29T02:10:20.391Z,9.78
2017-04-29T02:12:49.907Z,10.98
2017-04-29T02:15:19.276Z,11.17
2017-04-29T02:17:48.791Z,9.63
2017-04-29T02:20:19.306Z,9.70
2017-04-29T02:22:48.838Z,10.90
2017-04-29T02:25:19.675Z,10.65
2017-04-29T02:27:50.069Z,10.52
2017-04-29T02:30:19.451Z,11.43
2017-04-29T02:32:48.703Z,11.03
2017-04-29T02:35:18.975Z,10.60
2017-04-29T02:37:48.243Z,11.47
2017-04-29T02:40:17.523Z,11.85
2017-04-29T02:42:46.861Z,9.80
2017-04-29T02:45:16.143Z,11.52
2017-04-29T02:47:45.991Z,11.20
2017-04-29T02:50:15.368Z,11.17
2017-04-29T02:52:45.051Z,10.47
2017-04-29T02:55:14.627Z,12.25
2017-04-29T02:57:44.560Z,10.48
2017-04-29T03:00:13.988Z,11.03
2017-04-29T03:02:44.003Z,10.52
2017-04-29T03:05:13.287Z,11.38
2017-04-29T03:07:42.802Z,10.53
2017-04-29T03:10:12.323Z,10.03
2017-04-29T03:12:41.934Z,11.70
2017-04-29T03:15:11.357Z,11.40
2017-04-29T03:17:40.879Z,11.43
2017-04-29T03:20:10.428Z,10.77
2017-04-29T03:22:40.716Z,11.28
2017-04-29T03:25:10.215Z,10.02
2017-04-29T03:27:44.146Z,10.35
2017-04-29T03:30:14.439Z,11.18
2017-04-29T03:32:43.633Z,10.53
2017-04-29T03:35:13.604Z,10.67
2017-04-29T03:37:42.895Z,9.85
2017-04-29T03:40:12.899Z,11.32
2017-04-29T03:42:42.527Z,9.82
2017-04-29T03:45:11.672Z,11.08
2017-04-29T03:47:40.886Z,11.87
2017-04-29T03:50:10.136Z,10.98
2017-04-29T03:52:40.088Z,11.30
2017-04-29T03:55:09.619Z,12.07
2017-04-29T03:57:39.285Z,12.02
2017-04-29T04:00:08.882Z,11.03
2017-04-29T04:02:39.827Z,13.18
2017-04-29T04:05:09.324Z,12.13
2017-04-29T04:07:39.969Z,11.72
2017-04-29T04:10:10.177Z,11.60
2017-04-29T04:12:41.294Z,11.77
2017-04-29T04:15:11.079Z,13.08
2017-04-29T04:17:42.140Z,12.17
2017-04-29T04:20:16.620Z,12.80
2017-04-29T04:22:47.234Z,14.37
2017-04-29T04:25:18.139Z,13.22
2017-04-29T04:27:48.949Z,14.28
2017-04-29T04:30:23.943Z,13.70
2017-04-29T04:33:02.754Z,13.03
2017-04-29T04:35:34.005Z,13.47
2017-04-29T04:38:04.703Z,13.68
2017-04-29T04:50:26.523Z,13.93
2017-04-29T04:56:20.973Z,13.22
2017-04-29T04:58:54.304Z,14.23
2017-04-29T05:01:31.489Z,15.68
2017-04-29T05:04:15.981Z,15.52
2017-04-29T05:06:46.633Z,15.03
2017-04-29T05:09:15.951Z,15.52
2017-04-29T05:11:50.322Z,14.25
2017-04-29T05:14:20.551Z,14.52
2017-04-29T05:16:52.011Z,15.55
2017-04-29T05:19:21.905Z,14.93
2017-04-29T05:21:51.847Z,15.05
2017-04-29T05:24:21.241Z,16.37
2017-04-29T05:26:51.466Z,15.37
2017-04-29T05:29:21.406Z,14.57
2017-04-29T05:31:50.555Z,15.67
2017-04-29T05:34:19.842Z,16.27
2017-04-29T05:36:49.670Z,16.10
2017-04-29T05:39:21.767Z,16.60
2017-04-29T05:41:51.830Z,17.97
2017-04-29T05:44:20.971Z,19.65
2017-04-29T05:46:50.783Z,17.45
2017-04-29T05:49:19.899Z,17.62
2017-04-29T05:51:48.955Z,18.33
2017-04-29T05:54:18.019Z,20.03
2017-04-29T05:56:47.128Z,19.72
2017-04-29T05:59:16.251Z,19.15
2017-04-29T06:01:45.334Z,20.05
2017-04-29T06:04:14.403Z,22.63
2017-04-29T06:06:43.475Z,19.17
2017-04-29T06:09:12.546Z,21.67
2017-04-29T06:11:42.481Z,19.77
2017-04-29T06:14:11.540Z,19.63
2017-04-29T06:16:40.619Z,19.88
2017-04-29T06:19:09.711Z,20.63
2017-04-29T06:21:38.791Z,20.87
2017-04-29T06:24:07.869Z,20.22
2017-04-29T06:26:36.950Z,22.27
2017-04-29T06:29:15.943Z,21.15
2017-04-29T06:31:45.095Z,19.28
2017-04-29T06:34:14.172Z,21.80
2017-04-29T06:36:43.529Z,20.50
2017-04-29T06:39:12.647Z,21.32
2017-04-29T06:41:41.758Z,22.20
2017-04-29T06:44:13.739Z,20.42
2017-04-29T06:46:42.794Z,21.63
2017-04-29T06:49:11.887Z,21.55
2017-04-29T06:51:40.975Z,21.03
2017-04-29T06:54:10.063Z,22.58
2017-04-29T06:56:39.226Z,21.03
2017-04-29T06:59:11.872Z,21.57
2017-04-29T07:01:40.986Z,20.62
2017-04-29T07:04:10.689Z,19.08
2017-04-29T07:06:40.522Z,21.62
2017-04-29T07:09:09.631Z,20.22
2017-04-29T07:11:42.806Z,19.85
2017-04-29T07:14:11.892Z,18.95
2017-04-29T07:16:40.974Z,19.55
2017-04-29T07:19:10.812Z,18.80
2017-04-29T07:21:39.879Z,19.98
2017-04-29T07:24:09.801Z,17.82
2017-04-29T07:26:38.991Z,18.83
2017-04-29T07:29:08.827Z,18.17
2017-04-29T07:31:37.891Z,18.03
2017-04-29T07:34:07.010Z,19.20
2017-04-29T07:36:36.831Z,18.83
2017-04-29T07:39:07.747Z,19.50
2017-04-29T07:41:36.947Z,20.27
2017-04-29T07:44:06.354Z,18.40
2017-04-29T07:46:35.514Z,18.72
2017-04-29T07:49:05.395Z,17.32
2017-04-29T07:51:35.619Z,16.45
2017-04-29T07:54:05.467Z,16.12
2017-04-29T07:56:35.181Z,15.15
2017-04-29T07:59:04.280Z,14.82
2017-04-29T08:01:33.390Z,14.95
2017-04-29T08:04:02.521Z,14.80
2017-04-29T08:06:37.838Z,14.48
2017-04-29T08:09:07.008Z,14.70
2017-04-29T08:11:36.127Z,15.73
2017-04-29T08:14:05.207Z,14.58
2017-04-29T08:16:34.285Z,13.13
2017-04-29T08:19:03.366Z,13.25
2017-04-29T08:21:32.431Z,9.98
2017-04-29T08:24:01.522Z,9.50
2017-04-29T08:26:31.315Z,8.00
2017-04-29T08:29:00.390Z,8.65
2017-04-29T08:31:29.468Z,6.53
2017-04-29T08:33:58.534Z,5.70
2017-04-29T08:36:27.648Z,4.65
2017-04-29T08:38:56.710Z,4.27
2017-04-29T08:41:25.772Z,4.30
2017-04-29T08:43:54.837Z,4.27
2017-04-29T08:46:25.689Z,5.57
2017-04-29T08:48:54.738Z,5.85
2017-04-29T08:51:24.530Z,6.50
2017-04-29T08:53:53.601Z,5.80
2017-04-29T08:56:22.664Z,5.37
2017-04-29T08:58:51.710Z,5.85
2017-04-29T09:01:20.988Z,4.80
2017-04-29T09:03:50.056Z,5.50
2017-04-29T09:06:19.118Z,6.18
2017-04-29T09:08:50.867Z,6.18
2017-04-29T09:11:19.940Z,6.17
2017-04-29T09:13:48.987Z,6.38
2017-04-29T09:16:18.066Z,6.38
2017-04-29T09:18:47.868Z,6.43
2017-04-29T09:21:16.936Z,6.05
2017-04-29T09:23:46.031Z,6.33
2017-04-29T09:26:15.094Z,6.28
2017-04-29T09:28:44.143Z,6.23
2017-04-29T09:31:13.206Z,6.37
2017-04-29T09:33:42.277Z,6.93
2017-04-29T09:36:11.326Z,6.35
2017-04-29T09:38:40.420Z,5.80
2017-04-29T09:41:09.482Z,5.87
2017-04-29T09:43:38.522Z,6.47
2017-04-29T09:46:08.330Z,7.23
2017-04-29T09:48:37.374Z,5.62
2017-04-29T09:51:06.427Z,6.38
2017-04-29T09:53:36.243Z,5.52
2017-04-29T09:56:06.042Z,6.32
2017-04-29T09:59:01.418Z,5.25
2017-04-29T10:01:30.509Z,5.68
2017-04-29T10:03:59.566Z,5.25
2017-04-29T10:06:29.387Z,5.85
2017-04-29T10:08:58.443Z,4.40
2017-04-29T10:11:27.495Z,5.55
2017-04-29T10:13:56.558Z,5.55
2017-04-29T10:16:25.607Z,5.43
2017-04-29T10:18:54.650Z,4.38
2017-04-29T10:21:24.456Z,5.73
2017-04-29T10:23:54.395Z,4.77
2017-04-29T10:26:23.452Z,4.95
2017-04-29T10:28:52.531Z,5.13
2017-04-29T10:31:21.574Z,5.22
2017-04-29T10:33:50.631Z,5.85
2017-04-29T10:36:19.700Z,5.73
2017-04-29T10:38:48.747Z,5.50
2017-04-29T10:41:17.798Z,5.43
2017-04-29T10:43:46.862Z,5.58
2017-04-29T10:46:15.925Z,5.62
2017-04-29T10:48:45.711Z,4.48
2017-04-29T10:51:14.776Z,6.43
2017-04-29T10:53:48.414Z,5.55
2017-04-29T10:56:17.495Z,5.10
2017-04-29T10:58:46.538Z,5.42
2017-04-29T11:01:15.583Z,4.42
2017-04-29T11:03:44.638Z,4.62
2017-04-29T11:06:13.681Z,4.62
2017-04-29T11:08:43.727Z,5.53
2017-04-29T11:11:13.540Z,5.08
2017-04-29T11:13:43.338Z,5.10
2017-04-29T11:16:12.390Z,5.67
2017-04-29T11:18:41.479Z,5.30
2017-04-29T11:21:10.535Z,5.45
2017-04-29T11:23:40.329Z,3.73
2017-04-29T11:26:09.407Z,4.20
2017-04-29T11:28:41.805Z,4.95
2017-04-29T11:31:10.888Z,5.02
2017-04-29T11:33:39.976Z,4.73
2017-04-29T11:36:09.050Z,4.55
2017-04-29T11:38:38.182Z,3.93
2017-04-29T11:41:07.227Z,4.68
2017-04-29T11:43:36.296Z,3.72
2017-04-29T11:46:07.150Z,4.65
2017-04-29T11:48:36.207Z,4.00
2017-04-29T11:51:05.329Z,4.47
2017-04-29T11:53:34.419Z,3.73
2017-04-29T11:56:03.504Z,3.57
2017-04-29T11:58:32.560Z,3.70
2017-04-29T12:01:01.686Z,3.88
2017-04-29T12:03:30.739Z,3.97
2017-04-29T12:05:59.787Z,4.18
2017-04-29T12:08:28.855Z,4.13
2017-04-29T12:10:57.904Z,3.95
2017-04-29T12:13:26.950Z,4.08
2017-04-29T12:15:56.010Z,3.80
2017-04-29T12:18:25.059Z,3.80
2017-04-29T12:20:54.111Z,3.75
2017-04-29T12:23:23.187Z,3.57
2017-04-29T12:25:52.230Z,4.03
2017-04-29T12:28:21.275Z,4.53
2017-04-29T12:30:50.340Z,4.67
2017-04-29T12:33:19.386Z,3.97
2017-04-29T12:35:48.443Z,3.40
2017-04-29T12:38:18.258Z,3.33
2017-04-29T12:40:47.307Z,3.83
2017-04-29T12:43:16.355Z,3.63
2017-04-29T12:45:45.407Z,3.77
2017-04-29T12:48:14.452Z,3.65
2017-04-29T12:50:43.506Z,3.63
2017-04-29T12:53:12.579Z,4.77
2017-04-29T12:55:41.617Z,4.43
2017-04-29T12:58:11.403Z,4.53
2017-04-29T13:00:40.480Z,3.77
2017-04-29T13:03:09.520Z,3.58
2017-04-29T13:05:39.315Z,3.48
2017-04-29T13:08:08.392Z,3.63
2017-04-29T13:10:37.443Z,3.70
2017-04-29T13:13:06.494Z,4.37
2017-04-29T13:15:35.587Z,3.83
2017-04-29T13:18:04.635Z,4.65
2017-04-29T13:20:33.691Z,3.67
2017-04-29T13:23:02.779Z,4.18
2017-04-29T13:25:31.831Z,3.23
2017-04-29T13:28:00.902Z,3.77
2017-04-29T13:30:31.108Z,4.38
2017-04-29T13:33:00.920Z,4.35
2017-04-29T13:35:30.735Z,4.35
2017-04-29T13:38:00.563Z,3.67
2017-04-29T13:40:29.658Z,3.55
2017-04-29T13:42:58.718Z,3.63
2017-04-29T13:45:27.782Z,3.65
2017-04-29T13:47:56.842Z,4.07
2017-04-29T13:50:25.928Z,4.28
2017-04-29T13:52:55.007Z,3.90
2017-04-29T13:55:24.051Z,3.88
2017-04-29T13:57:53.100Z,4.18
2017-04-29T14:00:22.182Z,3.95
2017-04-29T14:02:51.235Z,3.03
2017-04-29T14:05:20.288Z,3.25
2017-04-29T14:07:50.394Z,4.10
2017-04-29T14:10:19.446Z,3.47
2017-04-29T14:12:48.496Z,3.80
2017-04-29T14:15:17.584Z,4.10
2017-04-29T14:17:46.638Z,3.80
2017-04-29T14:20:15.687Z,3.62
2017-04-29T14:22:45.495Z,4.38
2017-04-29T14:25:15.317Z,4.08
2017-04-29T14:27:44.407Z,4.08
2017-04-29T14:30:14.219Z,3.37
2017-04-29T14:32:44.012Z,3.87
2017-04-29T14:35:13.066Z,3.32
2017-04-29T14:37:42.135Z,3.52
2017-04-29T14:40:11.195Z,3.42
2017-04-29T14:42:40.256Z,3.20
2017-04-29T14:45:09.348Z,3.27
2017-04-29T14:47:38.403Z,3.57
2017-04-29T14:50:08.207Z,2.97
2017-04-29T14:52:37.286Z,3.57
2017-04-29T14:55:06.373Z,3.47
2017-04-29T14:57:36.462Z,3.85
2017-04-29T15:00:05.602Z,4.38
2017-04-29T15:02:34.663Z,3.32
2017-04-29T15:05:03.710Z,3.98
2017-04-29T15:07:33.521Z,4.13
2017-04-29T15:10:03.320Z,3.65
2017-04-29T15:12:32.384Z,3.12
2017-04-29T15:15:01.466Z,3.82
2017-04-29T15:17:30.524Z,3.14
2017-04-29T15:20:00.313Z,3.78
2017-04-29T15:22:29.395Z,3.48
2017-04-29T15:24:58.458Z,3.56
2017-04-29T15:27:27.535Z,2.90
2017-04-29T15:29:57.360Z,3.26
2017-04-29T15:32:26.415Z,3.48
2017-04-29T15:34:55.471Z,2.94
2017-04-29T15:37:24.543Z,3.60
2017-04-29T15:39:52.819Z,3.36
2017-04-29T15:42:21.871Z,3.60
2017-04-29T15:44:51.084Z,3.30
2017-04-29T15:47:20.210Z,2.80
2017-04-29T15:49:49.250Z,3.50
2017-04-29T15:55:19.256Z,2.40
2017-04-29T15:57:49.175Z,3.12
2017-04-29T16:00:21.651Z,2.60
2017-04-29T16:02:53.388Z,2.60
2017-04-29T16:05:22.471Z,3.50
2017-04-29T16:07:51.562Z,2.80
2017-04-29T16:10:20.614Z,3.70
2017-04-29T16:12:49.662Z,4.26
2017-04-29T16:15:18.776Z,3.72
2017-04-29T16:17:48.558Z,2.92
2017-04-29T16:20:17.695Z,2.40
2017-04-29T16:22:46.812Z,3.26
2017-04-29T16:25:15.904Z,2.78
2017-04-29T16:27:44.996Z,4.94
2017-04-29T16:30:14.189Z,5.42
2017-04-29T16:32:43.631Z,4.98
2017-04-29T16:35:12.679Z,3.98
2017-04-29T16:37:42.465Z,3.44
2017-04-29T16:40:11.518Z,2.72
2017-04-29T16:42:40.574Z,3.22
2017-04-29T16:45:10.354Z,2.88
2017-04-29T16:47:39.394Z,2.58
2017-04-29T16:50:09.183Z,2.52
2017-04-29T16:52:42.670Z,2.80
2017-04-29T16:55:11.710Z,2.52
2017-04-29T16:57:40.767Z,2.76
2017-04-29T17:00:09.886Z,2.52
2017-04-29T17:02:39.670Z,2.70
2017-04-29T17:05:08.725Z,3.54
2017-04-29T17:07:37.836Z,2.90
2017-04-29T17:10:06.891Z,3.20
2017-04-29T17:12:35.967Z,3.02
2017-04-29T17:15:05.787Z,2.87
2017-04-29T17:17:38.747Z,2.90
2017-04-29T17:20:07.831Z,3.12
2017-04-29T17:22:36.892Z,2.87
2017-04-29T17:25:05.950Z,2.78
2017-04-29T17:27:35.015Z,3.18
2017-04-29T17:30:04.067Z,3.00
2017-04-29T17:32:33.129Z,2.55
2017-04-29T17:35:02.194Z,2.90
2017-04-29T17:37:31.245Z,2.90
2017-04-29T17:40:00.302Z,2.70
2017-04-29T17:42:29.347Z,3.12
2017-04-29T17:44:58.396Z,3.45
2017-04-29T17:47:27.478Z,3.15
2017-04-29T17:49:56.550Z,3.27
2017-04-29T17:52:25.602Z,2.92
2017-04-29T17:54:55.396Z,3.97
2017-04-29T17:57:24.435Z,3.60
2017-04-29T17:59:53.477Z,3.58
2017-04-29T18:02:22.526Z,3.18
2017-04-29T18:04:51.571Z,3.08
2017-04-29T18:07:20.621Z,3.20
2017-04-29T18:09:49.668Z,3.45
2017-04-29T18:12:18.714Z,2.92
2017-04-29T18:14:47.782Z,3.28
2017-04-29T18:17:17.570Z,3.72
2017-04-29T18:19:46.615Z,3.00
2017-04-29T18:22:15.655Z,3.05
2017-04-29T18:24:44.711Z,3.17
2017-04-29T18:27:13.751Z,3.15
2017-04-29T18:29:42.796Z,2.98
2017-04-29T18:32:11.843Z,2.90
2017-04-29T18:34:41.905Z,3.87
2017-04-29T18:37:11.101Z,3.05
2017-04-29T18:39:40.190Z,3.68
2017-04-29T18:42:09.235Z,3.52
2017-04-29T18:44:38.625Z,3.77
2017-04-29T18:47:08.511Z,3.68
2017-04-29T18:49:37.555Z,3.23
2017-04-29T18:52:06.600Z,3.68
2017-04-29T18:54:35.638Z,2.90
2017-04-29T18:57:04.684Z,3.87
2017-04-29T18:59:33.726Z,3.42
2017-04-29T19:02:02.802Z,3.35
2017-04-29T19:04:31.845Z,3.28
2017-04-29T19:07:00.919Z,3.80
2017-04-29T19:09:29.964Z,3.87
2017-04-29T19:11:59.011Z,3.67
2017-04-29T19:14:28.063Z,3.70
2017-04-29T19:16:57.115Z,3.82
2017-04-29T19:19:26.925Z,3.02
2017-04-29T19:21:55.966Z,3.53
2017-04-29T19:24:25.007Z,3.75
2017-04-29T19:26:54.050Z,4.98
2017-04-29T19:29:23.099Z,3.62
2017-04-29T19:31:52.142Z,4.00
2017-04-29T19:34:21.208Z,4.03
2017-04-29T19:36:51.052Z,4.13
2017-04-29T19:39:20.092Z,4.63
2017-04-29T19:41:49.146Z,4.07
2017-04-29T19:44:18.262Z,3.70
2017-04-29T19:46:47.312Z,4.00
2017-04-29T19:49:16.369Z,4.00
2017-04-29T19:51:45.418Z,3.37
2017-04-29T19:54:15.375Z,3.72
2017-04-29T19:56:44.430Z,4.15
2017-04-29T19:59:13.468Z,3.52
2017-04-29T20:01:42.531Z,3.40
2017-04-29T20:04:11.578Z,4.42
2017-04-29T20:06:40.622Z,3.72
2017-04-29T20:09:09.662Z,3.98
2017-04-29T20:11:38.703Z,4.32
2017-04-29T20:14:07.747Z,4.18
2017-04-29T20:16:36.826Z,4.63
2017-04-29T20:19:05.884Z,4.33
2017-04-29T20:21:34.922Z,4.77
2017-04-29T20:24:03.974Z,4.60
2017-04-29T20:26:33.014Z,3.85
2017-04-29T20:29:02.063Z,4.03
2017-04-29T20:31:31.106Z,5.17
2017-04-29T20:34:00.202Z,5.23
2017-04-29T20:36:29.250Z,4.50
2017-04-29T20:38:59.311Z,4.95
2017-04-29T20:41:28.392Z,4.72
2017-04-29T20:43:57.430Z,5.25
2017-04-29T20:46:27.218Z,4.87
2017-04-29T20:48:56.259Z,4.32
2017-04-29T20:51:25.309Z,5.27
2017-04-29T20:53:54.347Z,4.72
2017-04-29T20:56:23.382Z,4.75
2017-04-29T20:58:52.429Z,4.92
2017-04-29T21:01:21.471Z,4.68
2017-04-29T21:03:50.522Z,4.82
2017-04-29T21:06:19.566Z,4.13
2017-04-29T21:08:48.627Z,4.73
2017-04-29T21:11:17.675Z,4.40
2017-04-29T21:13:47.702Z,4.60
2017-04-29T21:16:17.499Z,4.62
2017-04-29T21:18:46.541Z,4.17
2017-04-29T21:21:15.631Z,4.20
2017-04-29T21:23:44.694Z,5.32
2017-04-29T21:26:14.498Z,5.02
2017-04-29T21:28:43.535Z,5.37
2017-04-29T21:31:12.574Z,4.82
2017-04-29T21:33:41.630Z,5.55
2017-04-29T21:36:10.671Z,4.70
2017-04-29T21:38:39.709Z,4.65
2017-04-29T21:41:09.694Z,5.38
2017-04-29T21:43:38.738Z,4.57
2017-04-29T21:46:07.774Z,4.53
2017-04-29T21:48:36.839Z,4.70
2017-04-29T21:51:05.893Z,5.47
2017-04-29T21:53:35.662Z,6.13
2017-04-29T21:56:04.726Z,5.93
2017-04-29T21:58:33.764Z,6.83
2017-04-29T22:01:02.802Z,5.57
2017-04-29T22:03:31.853Z,5.07
2017-04-29T22:06:00.898Z,5.82
2017-04-29T22:08:29.939Z,6.07
2017-04-29T22:10:59.004Z,5.70
2017-04-29T22:13:28.036Z,5.42
2017-04-29T22:15:57.075Z,6.17
2017-04-29T22:18:26.132Z,5.90
2017-04-29T22:20:55.170Z,6.30
2017-04-29T22:23:24.212Z,5.57
2017-04-29T22:25:53.280Z,4.73
2017-04-29T22:28:22.306Z,5.62
2017-04-29T22:30:51.343Z,5.47
2017-04-29T22:33:20.406Z,5.37
2017-04-29T22:35:49.460Z,5.40
2017-04-29T22:38:18.504Z,5.70
2017-04-29T22:40:48.302Z,6.95
2017-04-29T22:43:17.339Z,5.70
2017-04-29T22:45:46.390Z,5.17
2017-04-29T22:48:15.451Z,5.95
2017-04-29T22:50:44.490Z,5.58
2017-04-29T22:53:13.515Z,6.20
2017-04-29T22:55:42.574Z,5.57
2017-04-29T22:58:11.610Z,7.22
2017-04-29T23:00:40.649Z,5.48
2017-04-29T23:03:09.719Z,5.70
2017-04-29T23:05:38.751Z,6.42
2017-04-29T23:08:07.795Z,5.85
2017-04-29T23:10:36.890Z,5.48
2017-04-29T23:13:05.925Z,6.18
2017-04-29T23:15:34.962Z,6.55
2017-04-29T23:18:04.020Z,5.72
2017-04-29T23:20:33.068Z,5.93
2017-04-29T23:23:02.105Z,5.97
2017-04-29T23:25:31.166Z,5.68
2017-04-29T23:28:00.194Z,5.53
2017-04-29T23:30:29.227Z,6.00
2017-04-29T23:32:58.395Z,5.78
2017-04-29T23:35:27.449Z,5.45
2017-04-29T23:37:56.479Z,5.10
2017-04-29T23:40:25.545Z,6.55
2017-04-29T23:42:54.579Z,5.82
2017-04-29T23:45:23.618Z,5.88
2017-04-29T23:47:52.683Z,5.62
2017-04-29T23:50:21.727Z,5.93
2017-04-29T23:52:50.771Z,5.08
2017-04-29T23:55:19.823Z,6.58
2017-04-29T23:57:48.868Z,4.73
